sensor_id;sensor_type;location;lat;lon;timestamp;pressure;altitude;pressure_sealevel;temperature;humidity
28167;BME280;15455;53.376;-6.262;2024-02-21T00:01:31;101009.00;;;4.47;100.00
28167;BME280;15455;53.376;-6.262;2024-02-21T00:04:17;100998.84;;;4.54;100.00
28167;BME280;15455;53.376;-6.262;2024-02-21T00:07:03;100977.69;;;4.68;100.00
28167;BME280;15455;53.376;-6.262;2024-02-21T00:09:49;100946.34;;;4.91;100.00
28167;BME280;15455;53.376;-6.262;2024-02-21T00:12:35;100940.03;;;5.16;100.00
28167;BME280;15455;53.376;-6.262;2024-02-21T00:15:20;100923.16;;;5.34;100.00
28167;BME280;15455;53.376;-6.262;2024-02-21T00:18:06;100917.34;;;5.44;100.00
28167;BME280;15455;53.376;-6.262;2024-02-21T00:20:52;100902.03;;;5.55;100.00
28167;BME280;15455;53.376;-6.262;2024-02-21T00:23:38;100894.44;;;5.64;100.00
28167;BME280;15455;53.376;-6.262;2024-02-21T00:26:23;100887.72;;;5.72;100.00
28167;BME280;15455;53.376;-6.262;2024-02-21T00:29:09;100882.66;;;5.79;100.00
28167;BME280;15455;53.376;-6.262;2024-02-21T00:31:55;100868.00;;;5.79;100.00
28167;BME280;15455;53.376;-6.262;2024-02-21T00:34:41;100860.41;;;5.90;100.00
28167;BME280;15455;53.376;-6.262;2024-02-21T00:37:27;100866.75;;;6.04;100.00
28167;BME280;15455;53.376;-6.262;2024-02-21T00:40:13;100851.50;;;6.20;100.00
28167;BME280;15455;53.376;-6.262;2024-02-21T00:43:02;100825.75;;;6.32;100.00
28167;BME280;15455;53.376;-6.262;2024-02-21T00:45:48;100817.13;;;6.32;100.00
28167;BME280;15455;53.376;-6.262;2024-02-21T00:48:34;100809.31;;;6.30;100.00
28167;BME280;15455;53.376;-6.262;2024-02-21T00:51:20;100790.25;;;6.28;100.00
28167;BME280;15455;53.376;-6.262;2024-02-21T00:54:05;100776.44;;;6.28;100.00
28167;BME280;15455;53.376;-6.262;2024-02-21T00:56:51;100765.31;;;6.35;100.00
28167;BME280;15455;53.376;-6.262;2024-02-21T00:59:37;100762.16;;;6.54;100.00
28167;BME280;15455;53.376;-6.262;2024-02-21T01:02:23;100765.84;;;6.72;100.00
28167;BME280;15455;53.376;-6.262;2024-02-21T01:05:08;100756.53;;;6.85;100.00
28167;BME280;15455;53.376;-6.262;2024-02-21T01:07:54;100742.81;;;6.97;100.00
28167;BME280;15455;53.376;-6.262;2024-02-21T01:10:40;100723.91;;;7.05;100.00
28167;BME280;15455;53.376;-6.262;2024-02-21T01:13:26;100717.88;;;7.08;100.00
28167;BME280;15455;53.376;-6.262;2024-02-21T01:16:11;100718.81;;;7.15;100.00
28167;BME280;15455;53.376;-6.262;2024-02-21T01:18:57;100699.84;;;7.20;100.00
28167;BME280;15455;53.376;-6.262;2024-02-21T01:21:43;100679.06;;;7.22;100.00
28167;BME280;15455;53.376;-6.262;2024-02-21T01:24:29;100671.31;;;7.26;100.00
28167;BME280;15455;53.376;-6.262;2024-02-21T01:27:15;100673.97;;;7.28;100.00
28167;BME280;15455;53.376;-6.262;2024-02-21T01:30:01;100668.72;;;7.26;100.00
28167;BME280;15455;53.376;-6.262;2024-02-21T01:32:46;100655.75;;;7.26;100.00
28167;BME280;15455;53.376;-6.262;2024-02-21T01:35:32;100639.31;;;7.24;100.00
28167;BME280;15455;53.376;-6.262;2024-02-21T01:38:18;100620.25;;;7.21;100.00
28167;BME280;15455;53.376;-6.262;2024-02-21T01:41:04;100620.19;;;7.18;100.00
28167;BME280;15455;53.376;-6.262;2024-02-21T01:43:50;100622.78;;;7.16;100.00
28167;BME280;15455;53.376;-6.262;2024-02-21T01:46:36;100608.09;;;7.15;100.00
28167;BME280;15455;53.376;-6.262;2024-02-21T01:49:22;100599.44;;;7.16;100.00
28167;BME280;15455;53.376;-6.262;2024-02-21T01:52:09;100590.81;;;7.19;100.00
28167;BME280;15455;53.376;-6.262;2024-02-21T01:54:55;100584.75;;;7.20;100.00
28167;BME280;15455;53.376;-6.262;2024-02-21T01:57:43;100563.16;;;7.21;100.00
28167;BME280;15455;53.376;-6.262;2024-02-21T02:00:32;100554.50;;;7.22;100.00
28167;BME280;15455;53.376;-6.262;2024-02-21T02:03:19;100542.41;;;7.24;100.00
28167;BME280;15455;53.376;-6.262;2024-02-21T02:06:05;100526.84;;;7.27;100.00
28167;BME280;15455;53.376;-6.262;2024-02-21T02:08:52;100511.28;;;7.28;100.00
28167;BME280;15455;53.376;-6.262;2024-02-21T02:11:39;100496.56;;;7.27;100.00
28167;BME280;15455;53.376;-6.262;2024-02-21T02:14:25;100477.50;;;7.21;100.00
28167;BME280;15455;53.376;-6.262;2024-02-21T02:17:11;100467.94;;;7.17;100.00
28167;BME280;15455;53.376;-6.262;2024-02-21T02:19:57;100471.38;;;7.11;100.00
28167;BME280;15455;53.376;-6.262;2024-02-21T02:22:43;100460.97;;;7.06;100.00
28167;BME280;15455;53.376;-6.262;2024-02-21T02:25:30;100449.66;;;7.01;100.00
28167;BME280;15455;53.376;-6.262;2024-02-21T02:28:15;100445.31;;;6.95;100.00
28167;BME280;15455;53.376;-6.262;2024-02-21T02:31:01;100454.81;;;6.93;100.00
28167;BME280;15455;53.376;-6.262;2024-02-21T02:33:47;100438.34;;;6.91;100.00
28167;BME280;15455;53.376;-6.262;2024-02-21T02:36:34;100418.44;;;6.89;100.00
28167;BME280;15455;53.376;-6.262;2024-02-21T02:39:20;100410.66;;;6.87;100.00
28167;BME280;15455;53.376;-6.262;2024-02-21T02:42:06;100396.81;;;6.87;100.00
28167;BME280;15455;53.376;-6.262;2024-02-21T02:44:51;100383.84;;;6.87;100.00
28167;BME280;15455;53.376;-6.262;2024-02-21T02:47:36;100363.09;;;6.85;100.00
28167;BME280;15455;53.376;-6.262;2024-02-21T02:50:23;100359.63;;;6.83;100.00
28167;BME280;15455;53.376;-6.262;2024-02-21T02:53:09;100344.91;;;6.82;100.00
28167;BME280;15455;53.376;-6.262;2024-02-21T02:55:54;100337.13;;;6.82;100.00
28167;BME280;15455;53.376;-6.262;2024-02-21T02:58:40;100312.03;;;6.80;100.00
28167;BME280;15455;53.376;-6.262;2024-02-21T03:01:26;100306.00;;;6.79;100.00
28167;BME280;15455;53.376;-6.262;2024-02-21T03:04:11;100282.66;;;6.81;100.00
28167;BME280;15455;53.376;-6.262;2024-02-21T03:06:57;100274.91;;;6.85;100.00
28167;BME280;15455;53.376;-6.262;2024-02-21T03:09:43;100268.84;;;6.86;100.00
28167;BME280;15455;53.376;-6.262;2024-02-21T03:12:28;100250.72;;;6.89;100.00
28167;BME280;15455;53.376;-6.262;2024-02-21T03:15:14;100248.97;;;6.91;100.00
28167;BME280;15455;53.376;-6.262;2024-02-21T03:18:00;100236.91;;;6.93;100.00
28167;BME280;15455;53.376;-6.262;2024-02-21T03:20:45;100225.63;;;6.94;100.00
28167;BME280;15455;53.376;-6.262;2024-02-21T03:23:31;100206.63;;;6.94;100.00
28167;BME280;15455;53.376;-6.262;2024-02-21T03:26:16;100186.72;;;6.94;100.00
28167;BME280;15455;53.376;-6.262;2024-02-21T03:29:03;100176.34;;;6.96;100.00
28167;BME280;15455;53.376;-6.262;2024-02-21T03:31:50;100166.00;;;6.99;100.00
28167;BME280;15455;53.376;-6.262;2024-02-21T03:34:35;100146.09;;;7.03;100.00
28167;BME280;15455;53.376;-6.262;2024-02-21T03:37:21;100147.00;;;7.06;100.00
28167;BME280;15455;53.376;-6.262;2024-02-21T03:40:08;100140.94;;;7.10;100.00
28167;BME280;15455;53.376;-6.262;2024-02-21T03:42:54;100140.06;;;7.15;100.00
28167;BME280;15455;53.376;-6.262;2024-02-21T03:45:39;100129.69;;;7.13;100.00
28167;BME280;15455;53.376;-6.262;2024-02-21T03:48:25;100119.31;;;7.18;100.00
28167;BME280;15455;53.376;-6.262;2024-02-21T03:51:10;100098.59;;;7.22;100.00
28167;BME280;15455;53.376;-6.262;2024-02-21T03:53:56;100076.06;;;7.27;100.00
28167;BME280;15455;53.376;-6.262;2024-02-21T03:56:41;100057.03;;;7.32;100.00
28167;BME280;15455;53.376;-6.262;2024-02-21T03:59:27;100050.09;;;7.34;100.00
28167;BME280;15455;53.376;-6.262;2024-02-21T04:02:13;100049.25;;;7.35;100.00
28167;BME280;15455;53.376;-6.262;2024-02-21T04:04:59;100033.66;;;7.36;100.00
28167;BME280;15455;53.376;-6.262;2024-02-21T04:07:45;100012.91;;;7.35;100.00
28167;BME280;15455;53.376;-6.262;2024-02-21T04:10:31;99999.06;;;7.36;100.00
28167;BME280;15455;53.376;-6.262;2024-02-21T04:13:16;99987.84;;;7.37;100.00
28167;BME280;15455;53.376;-6.262;2024-02-21T04:16:01;99978.28;;;7.39;100.00
28167;BME280;15455;53.376;-6.262;2024-02-21T04:18:48;99957.53;;;7.40;100.00
28167;BME280;15455;53.376;-6.262;2024-02-21T04:21:34;99963.59;;;7.44;100.00
28167;BME280;15455;53.376;-6.262;2024-02-21T04:24:20;99952.31;;;7.45;100.00
28167;BME280;15455;53.376;-6.262;2024-02-21T04:27:06;99935.88;;;7.46;100.00
28167;BME280;15455;53.376;-6.262;2024-02-21T04:29:52;99913.34;;;7.48;100.00
28167;BME280;15455;53.376;-6.262;2024-02-21T04:32:38;99909.03;;;7.50;100.00
28167;BME280;15455;53.376;-6.262;2024-02-21T04:35:24;99896.03;;;7.53;100.00
28167;BME280;15455;53.376;-6.262;2024-02-21T04:38:10;99893.44;;;7.53;100.00
28167;BME280;15455;53.376;-6.262;2024-02-21T04:40:55;99883.03;;;7.58;100.00
28167;BME280;15455;53.376;-6.262;2024-02-21T04:43:46;99870.94;;;7.60;100.00
28167;BME280;15455;53.376;-6.262;2024-02-21T04:46:32;99861.38;;;7.63;100.00
28167;BME280;15455;53.376;-6.262;2024-02-21T04:49:18;99850.97;;;7.68;100.00
28167;BME280;15455;53.376;-6.262;2024-02-21T04:52:04;99838.84;;;7.70;100.00
28167;BME280;15455;53.376;-6.262;2024-02-21T04:54:50;99819.78;;;7.74;100.00
28167;BME280;15455;53.376;-6.262;2024-02-21T04:57:37;99807.63;;;7.78;100.00
28167;BME280;15455;53.376;-6.262;2024-02-21T05:00:22;99798.94;;;7.82;100.00
28167;BME280;15455;53.376;-6.262;2024-02-21T05:03:08;99787.66;;;7.86;100.00
28167;BME280;15455;53.376;-6.262;2024-02-21T05:05:53;99768.63;;;7.87;100.00
28167;BME280;15455;53.376;-6.262;2024-02-21T05:08:40;99753.00;;;7.89;100.00
28167;BME280;15455;53.376;-6.262;2024-02-21T05:11:26;99744.28;;;7.93;100.00
28167;BME280;15455;53.376;-6.262;2024-02-21T05:14:11;99742.56;;;7.96;100.00
28167;BME280;15455;53.376;-6.262;2024-02-21T05:16:57;99730.41;;;7.98;100.00
28167;BME280;15455;53.376;-6.262;2024-02-21T05:19:42;99727.78;;;8.00;100.00
28167;BME280;15455;53.376;-6.262;2024-02-21T05:22:28;99701.78;;;8.02;100.00
28167;BME280;15455;53.376;-6.262;2024-02-21T05:25:13;99698.28;;;8.06;100.00
28167;BME280;15455;53.376;-6.262;2024-02-21T05:27:59;99700.84;;;8.09;100.00
28167;BME280;15455;53.376;-6.262;2024-02-21T05:30:47;99686.13;;;8.11;100.00
28167;BME280;15455;53.376;-6.262;2024-02-21T05:33:33;99681.75;;;8.13;100.00
28167;BME280;15455;53.376;-6.262;2024-02-21T05:36:19;99673.94;;;8.16;100.00
28167;BME280;15455;53.376;-6.262;2024-02-21T05:39:04;99660.06;;;8.18;100.00
28167;BME280;15455;53.376;-6.262;2024-02-21T05:41:50;99652.22;;;8.22;100.00
28167;BME280;15455;53.376;-6.262;2024-02-21T05:44:36;99639.19;;;8.23;100.00
28167;BME280;15455;53.376;-6.262;2024-02-21T05:47:21;99625.34;;;8.24;100.00
28167;BME280;15455;53.376;-6.262;2024-02-21T05:50:07;99608.84;;;8.27;100.00
28167;BME280;15455;53.376;-6.262;2024-02-21T05:52:54;99594.09;;;8.27;100.00
28167;BME280;15455;53.376;-6.262;2024-02-21T05:55:41;99583.69;;;8.29;100.00
28167;BME280;15455;53.376;-6.262;2024-02-21T05:58:26;99574.16;;;8.29;100.00
28167;BME280;15455;53.376;-6.262;2024-02-21T06:01:12;99561.13;;;8.32;100.00
28167;BME280;15455;53.376;-6.262;2024-02-21T06:03:57;99561.13;;;8.34;100.00
28167;BME280;15455;53.376;-6.262;2024-02-21T06:06:43;99541.16;;;8.34;100.00
28167;BME280;15455;53.376;-6.262;2024-02-21T06:09:28;99523.81;;;8.38;100.00
28167;BME280;15455;53.376;-6.262;2024-02-21T06:12:13;99505.53;;;8.43;100.00
28167;BME280;15455;53.376;-6.262;2024-02-21T06:14:59;99495.97;;;8.46;100.00
28167;BME280;15455;53.376;-6.262;2024-02-21T06:17:45;99502.03;;;8.48;100.00
28167;BME280;15455;53.376;-6.262;2024-02-21T06:20:30;99489.91;;;8.47;100.00
28167;BME280;15455;53.376;-6.262;2024-02-21T06:23:16;99466.47;;;8.49;100.00
28167;BME280;15455;53.376;-6.262;2024-02-21T06:26:02;99469.03;;;8.52;100.00
28167;BME280;15455;53.376;-6.262;2024-02-21T06:28:48;99450.81;;;8.52;100.00
28167;BME280;15455;53.376;-6.262;2024-02-21T06:31:34;99437.78;;;8.55;100.00
28167;BME280;15455;53.376;-6.262;2024-02-21T06:34:20;99430.78;;;8.59;100.00
28167;BME280;15455;53.376;-6.262;2024-02-21T06:37:05;99413.41;;;8.62;100.00
28167;BME280;15455;53.376;-6.262;2024-02-21T06:39:51;99409.88;;;8.65;100.00
28167;BME280;15455;53.376;-6.262;2024-02-21T06:42:36;99405.50;;;8.68;100.00
28167;BME280;15455;53.376;-6.262;2024-02-21T06:45:22;99390.63;;;8.77;100.00
28167;BME280;15455;53.376;-6.262;2024-02-21T06:48:08;99380.91;;;8.86;100.00
28167;BME280;15455;53.376;-6.262;2024-02-21T06:50:53;99379.09;;;8.92;100.00
28167;BME280;15455;53.376;-6.262;2024-02-21T06:53:39;99366.94;;;8.92;100.00
28167;BME280;15455;53.376;-6.262;2024-02-21T06:56:26;99363.50;;;8.90;100.00
28167;BME280;15455;53.376;-6.262;2024-02-21T06:59:14;99357.41;;;8.93;100.00
28167;BME280;15455;53.376;-6.262;2024-02-21T07:02:01;99352.91;;;8.99;100.00
28167;BME280;15455;53.376;-6.262;2024-02-21T07:04:47;99334.59;;;9.06;100.00
28167;BME280;15455;53.376;-6.262;2024-02-21T07:07:33;99330.94;;;9.16;100.00
28167;BME280;15455;53.376;-6.262;2024-02-21T07:10:20;99318.56;;;9.26;100.00
28167;BME280;15455;53.376;-6.262;2024-02-21T07:13:06;99310.63;;;9.33;100.00
28167;BME280;15455;53.376;-6.262;2024-02-21T07:15:51;99305.03;;;9.52;100.00
28167;BME280;15455;53.376;-6.262;2024-02-21T07:18:37;99299.53;;;9.64;100.00
28167;BME280;15455;53.376;-6.262;2024-02-21T07:21:22;99287.88;;;9.82;100.00
28167;BME280;15455;53.376;-6.262;2024-02-21T07:24:08;99275.47;;;9.92;100.00
28167;BME280;15455;53.376;-6.262;2024-02-21T07:26:54;99256.13;;;10.01;100.00
28167;BME280;15455;53.376;-6.262;2024-02-21T07:29:41;99247.22;;;10.09;100.00
28167;BME280;15455;53.376;-6.262;2024-02-21T07:32:27;99244.34;;;10.22;100.00
28167;BME280;15455;53.376;-6.262;2024-02-21T07:35:13;99224.09;;;10.32;100.00
28167;BME280;15455;53.376;-6.262;2024-02-21T07:37:59;99205.78;;;10.35;100.00
28167;BME280;15455;53.376;-6.262;2024-02-21T07:40:45;99190.91;;;10.38;100.00
28167;BME280;15455;53.376;-6.262;2024-02-21T07:43:31;99180.41;;;10.41;100.00
28167;BME280;15455;53.376;-6.262;2024-02-21T07:46:16;99153.38;;;10.44;100.00
28167;BME280;15455;53.376;-6.262;2024-02-21T07:49:01;99141.22;;;10.45;100.00
28167;BME280;15455;53.376;-6.262;2024-02-21T07:51:47;99118.59;;;10.45;100.00
28167;BME280;15455;53.376;-6.262;2024-02-21T07:54:33;99110.63;;;10.50;100.00
28167;BME280;15455;53.376;-6.262;2024-02-21T07:57:19;99115.78;;;10.51;100.00
28167;BME280;15455;53.376;-6.262;2024-02-21T08:00:05;99118.41;;;10.51;100.00
28167;BME280;15455;53.376;-6.262;2024-02-21T08:02:56;99101.81;;;10.54;100.00
28167;BME280;15455;53.376;-6.262;2024-02-21T08:05:42;99097.47;;;10.54;100.00
28167;BME280;15455;53.376;-6.262;2024-02-21T08:08:27;99098.25;;;10.56;100.00
28167;BME280;15455;53.376;-6.262;2024-02-21T08:11:13;99089.44;;;10.60;100.00
28167;BME280;15455;53.376;-6.262;2024-02-21T08:13:59;99085.06;;;10.61;100.00
28167;BME280;15455;53.376;-6.262;2024-02-21T08:16:45;99078.69;;;10.71;100.00
28167;BME280;15455;53.376;-6.262;2024-02-21T08:19:31;99065.53;;;10.74;100.00
28167;BME280;15455;53.376;-6.262;2024-02-21T08:22:17;99049.78;;;10.79;100.00
28167;BME280;15455;53.376;-6.262;2024-02-21T08:25:03;99043.53;;;10.83;100.00
28167;BME280;15455;53.376;-6.262;2024-02-21T08:27:50;99033.97;;;10.84;100.00
28167;BME280;15455;53.376;-6.262;2024-02-21T08:30:36;99039.13;;;10.85;100.00
28167;BME280;15455;53.376;-6.262;2024-02-21T08:33:22;99042.59;;;10.86;100.00
28167;BME280;15455;53.376;-6.262;2024-02-21T08:36:17;99025.09;;;10.89;100.00
28167;BME280;15455;53.376;-6.262;2024-02-21T08:39:04;99018.09;;;10.90;100.00
28167;BME280;15455;53.376;-6.262;2024-02-21T08:41:50;99015.50;;;10.90;100.00
28167;BME280;15455;53.376;-6.262;2024-02-21T08:44:42;99010.28;;;10.90;100.00
28167;BME280;15455;53.376;-6.262;2024-02-21T08:47:28;99010.13;;;10.94;100.00
28167;BME280;15455;53.376;-6.262;2024-02-21T08:50:13;99003.00;;;11.00;100.00
28167;BME280;15455;53.376;-6.262;2024-02-21T08:53:12;98994.13;;;11.05;100.00
28167;BME280;15455;53.376;-6.262;2024-02-21T08:55:59;98997.53;;;11.07;100.00
28167;BME280;15455;53.376;-6.262;2024-02-21T08:58:44;98997.41;;;11.10;100.00
28167;BME280;15455;53.376;-6.262;2024-02-21T09:01:31;98988.59;;;11.15;100.00
28167;BME280;15455;53.376;-6.262;2024-02-21T09:04:17;98980.66;;;11.18;100.00
28167;BME280;15455;53.376;-6.262;2024-02-21T09:07:03;98981.47;;;11.20;100.00
28167;BME280;15455;53.376;-6.262;2024-02-21T09:09:48;98970.06;;;11.22;100.00
28167;BME280;15455;53.376;-6.262;2024-02-21T09:12:34;98978.47;;;11.30;100.00
28167;BME280;15455;53.376;-6.262;2024-02-21T09:15:19;98980.94;;;11.35;100.00
28167;BME280;15455;53.376;-6.262;2024-02-21T09:18:05;98972.19;;;11.36;100.00
28167;BME280;15455;53.376;-6.262;2024-02-21T09:20:51;98990.47;;;11.36;100.00
28167;BME280;15455;53.376;-6.262;2024-02-21T09:23:37;98981.59;;;11.42;100.00
28167;BME280;15455;53.376;-6.262;2024-02-21T09:26:22;98983.19;;;11.46;100.00
28167;BME280;15455;53.376;-6.262;2024-02-21T09:29:08;98978.75;;;11.48;100.00
28167;BME280;15455;53.376;-6.262;2024-02-21T09:31:54;98984.69;;;11.53;100.00
28167;BME280;15455;53.376;-6.262;2024-02-21T09:34:39;98982.44;;;11.68;100.00
28167;BME280;15455;53.376;-6.262;2024-02-21T09:37:25;98979.28;;;11.83;100.00
28167;BME280;15455;53.376;-6.262;2024-02-21T09:40:17;98972.72;;;11.96;100.00
28167;BME280;15455;53.376;-6.262;2024-02-21T09:43:04;98968.72;;;12.10;100.00
28167;BME280;15455;53.376;-6.262;2024-02-21T09:45:54;98959.63;;;12.20;100.00
28167;BME280;15455;53.376;-6.262;2024-02-21T09:52:05;98948.03;;;12.27;100.00
28167;BME280;15455;53.376;-6.262;2024-02-21T09:54:51;98960.91;;;12.32;100.00
28167;BME280;15455;53.376;-6.262;2024-02-21T09:57:38;98954.59;;;12.38;100.00
28167;BME280;15455;53.376;-6.262;2024-02-21T10:00:24;98942.97;;;12.45;100.00
28167;BME280;15455;53.376;-6.262;2024-02-21T10:03:10;98929.63;;;12.53;100.00
28167;BME280;15455;53.376;-6.262;2024-02-21T10:05:56;98945.13;;;12.57;100.00
28167;BME280;15455;53.376;-6.262;2024-02-21T10:08:41;98951.19;;;12.58;100.00
28167;BME280;15455;53.376;-6.262;2024-02-21T10:11:26;98971.34;;;12.56;100.00
28167;BME280;15455;53.376;-6.262;2024-02-21T10:14:12;98971.47;;;12.53;100.00
28167;BME280;15455;53.376;-6.262;2024-02-21T10:16:58;98980.59;;;12.42;100.00
28167;BME280;15455;53.376;-6.262;2024-02-21T10:19:44;98990.44;;;12.36;100.00
28167;BME280;15455;53.376;-6.262;2024-02-21T10:22:30;98988.19;;;12.26;100.00
28167;BME280;15455;53.376;-6.262;2024-02-21T10:25:21;98990.88;;;12.23;100.00
28167;BME280;15455;53.376;-6.262;2024-02-21T10:28:07;99009.13;;;12.26;100.00
28167;BME280;15455;53.376;-6.262;2024-02-21T10:30:53;99000.13;;;12.33;100.00
28167;BME280;15455;53.376;-6.262;2024-02-21T10:33:38;99010.22;;;12.43;100.00
28167;BME280;15455;53.376;-6.262;2024-02-21T10:36:24;99012.72;;;12.46;100.00
28167;BME280;15455;53.376;-6.262;2024-02-21T10:39:10;99006.53;;;12.48;100.00
28167;BME280;15455;53.376;-6.262;2024-02-21T10:41:59;99014.31;;;12.50;100.00
28167;BME280;15455;53.376;-6.262;2024-02-21T10:44:51;99019.59;;;12.48;100.00
28167;BME280;15455;53.376;-6.262;2024-02-21T10:47:39;99025.75;;;12.47;100.00
28167;BME280;15455;53.376;-6.262;2024-02-21T10:50:25;99034.72;;;12.40;100.00
28167;BME280;15455;53.376;-6.262;2024-02-21T10:53:23;99048.63;;;12.42;100.00
28167;BME280;15455;53.376;-6.262;2024-02-21T10:56:31;99047.81;;;12.40;100.00
28167;BME280;15455;53.376;-6.262;2024-02-21T10:59:21;99056.53;;;12.41;100.00
28167;BME280;15455;53.376;-6.262;2024-02-21T11:02:07;99050.31;;;12.43;100.00
28167;BME280;15455;53.376;-6.262;2024-02-21T11:04:54;99049.28;;;12.47;100.00
28167;BME280;15455;53.376;-6.262;2024-02-21T11:07:40;99043.09;;;12.50;100.00
28167;BME280;15455;53.376;-6.262;2024-02-21T11:10:26;99043.94;;;12.50;100.00
28167;BME280;15455;53.376;-6.262;2024-02-21T11:13:12;99035.13;;;12.53;100.00
28167;BME280;15455;53.376;-6.262;2024-02-21T11:16:09;99043.72;;;12.57;100.00
28167;BME280;15455;53.376;-6.262;2024-02-21T11:19:07;99052.47;;;12.56;100.00
28167;BME280;15455;53.376;-6.262;2024-02-21T11:21:55;99064.72;;;12.55;100.00
28167;BME280;15455;53.376;-6.262;2024-02-21T11:24:40;99065.91;;;12.46;100.00
28167;BME280;15455;53.376;-6.262;2024-02-21T11:27:33;99058.09;;;12.45;100.00
28167;BME280;15455;53.376;-6.262;2024-02-21T11:30:26;99073.97;;;12.40;100.00
28167;BME280;15455;53.376;-6.262;2024-02-21T11:33:12;99070.69;;;12.35;100.00
28167;BME280;15455;53.376;-6.262;2024-02-21T11:35:58;99079.81;;;12.23;100.00
28167;BME280;15455;53.376;-6.262;2024-02-21T11:38:43;99095.13;;;12.10;100.00
28167;BME280;15455;53.376;-6.262;2024-02-21T11:41:29;99078.09;;;11.98;100.00
28167;BME280;15455;53.376;-6.262;2024-02-21T11:44:15;99080.59;;;12.02;100.00
28167;BME280;15455;53.376;-6.262;2024-02-21T11:47:00;99090.44;;;12.19;100.00
28167;BME280;15455;53.376;-6.262;2024-02-21T11:49:47;99064.25;;;12.20;100.00
28167;BME280;15455;53.376;-6.262;2024-02-21T11:52:35;99060.72;;;12.21;100.00
28167;BME280;15455;53.376;-6.262;2024-02-21T11:55:22;99055.25;;;12.27;100.00
28167;BME280;15455;53.376;-6.262;2024-02-21T11:58:07;99037.22;;;12.43;100.00
28167;BME280;15455;53.376;-6.262;2024-02-21T12:00:53;99041.06;;;12.58;100.00
28167;BME280;15455;53.376;-6.262;2024-02-21T12:03:39;99046.09;;;12.63;100.00
28167;BME280;15455;53.376;-6.262;2024-02-21T12:06:26;99052.00;;;12.68;100.00
28167;BME280;15455;53.376;-6.262;2024-02-21T12:09:18;99058.63;;;12.55;100.00
28167;BME280;15455;53.376;-6.262;2024-02-21T12:12:05;99032.00;;;12.20;100.00
28167;BME280;15455;53.376;-6.262;2024-02-21T12:14:56;99063.03;;;12.05;100.00
28167;BME280;15455;53.376;-6.262;2024-02-21T12:17:44;99065.66;;;12.05;100.00
28167;BME280;15455;53.376;-6.262;2024-02-21T12:20:30;99047.41;;;12.04;100.00
28167;BME280;15455;53.376;-6.262;2024-02-21T12:23:18;99050.63;;;12.12;100.00
28167;BME280;15455;53.376;-6.262;2024-02-21T12:26:04;99059.47;;;12.08;100.00
28167;BME280;15455;53.376;-6.262;2024-02-21T12:28:51;99070.00;;;12.06;100.00
28167;BME280;15455;53.376;-6.262;2024-02-21T12:31:37;99072.00;;;11.98;100.00
28167;BME280;15455;53.376;-6.262;2024-02-21T12:34:23;99066.38;;;11.84;100.00
28167;BME280;15455;53.376;-6.262;2024-02-21T12:37:27;99067.56;;;11.75;100.00
28167;BME280;15455;53.376;-6.262;2024-02-21T12:40:13;99071.88;;;11.76;100.00
28167;BME280;15455;53.376;-6.262;2024-02-21T12:43:00;99074.63;;;11.71;100.00
28167;BME280;15455;53.376;-6.262;2024-02-21T12:45:49;99072.06;;;11.70;100.00
28167;BME280;15455;53.376;-6.262;2024-02-21T12:48:35;99074.94;;;11.89;100.00
28167;BME280;15455;53.376;-6.262;2024-02-21T12:51:20;99082.84;;;12.12;100.00
28167;BME280;15455;53.376;-6.262;2024-02-21T12:54:06;99073.56;;;12.27;100.00
28167;BME280;15455;53.376;-6.262;2024-02-21T12:56:52;99077.72;;;12.33;100.00
28167;BME280;15455;53.376;-6.262;2024-02-21T12:59:37;99082.47;;;12.47;100.00
28167;BME280;15455;53.376;-6.262;2024-02-21T13:02:23;99080.31;;;12.58;100.00
28167;BME280;15455;53.376;-6.262;2024-02-21T13:05:08;99090.09;;;12.75;100.00
28167;BME280;15455;53.376;-6.262;2024-02-21T13:07:54;99086.13;;;12.89;100.00
28167;BME280;15455;53.376;-6.262;2024-02-21T13:10:40;99080.91;;;12.89;100.00
28167;BME280;15455;53.376;-6.262;2024-02-21T13:13:25;99102.13;;;12.81;100.00
28167;BME280;15455;53.376;-6.262;2024-02-21T13:16:11;99101.22;;;12.82;100.00
28167;BME280;15455;53.376;-6.262;2024-02-21T13:18:57;99111.69;;;12.82;100.00
28167;BME280;15455;53.376;-6.262;2024-02-21T13:21:42;99109.53;;;12.69;100.00
28167;BME280;15455;53.376;-6.262;2024-02-21T13:24:29;99103.69;;;12.63;100.00
28167;BME280;15455;53.376;-6.262;2024-02-21T13:27:15;99113.59;;;12.77;100.00
28167;BME280;15455;53.376;-6.262;2024-02-21T13:30:01;99107.47;;;12.78;100.00
28167;BME280;15455;53.376;-6.262;2024-02-21T13:32:51;99116.75;;;12.86;100.00
28167;BME280;15455;53.376;-6.262;2024-02-21T13:35:36;99110.03;;;12.79;100.00
28167;BME280;15455;53.376;-6.262;2024-02-21T13:38:22;99098.59;;;13.04;100.00
28167;BME280;15455;53.376;-6.262;2024-02-21T13:41:09;99106.28;;;13.31;100.00
28167;BME280;15455;53.376;-6.262;2024-02-21T13:43:55;99129.72;;;13.35;100.00
28167;BME280;15455;53.376;-6.262;2024-02-21T13:46:40;99135.81;;;12.66;100.00
28167;BME280;15455;53.376;-6.262;2024-02-21T13:49:26;99141.91;;;11.91;100.00
28167;BME280;15455;53.376;-6.262;2024-02-21T13:52:11;99155.34;;;11.54;100.00
28167;BME280;15455;53.376;-6.262;2024-02-21T13:54:57;99154.97;;;11.38;100.00
28167;BME280;15455;53.376;-6.262;2024-02-21T13:57:42;99140.34;;;11.32;100.00
28167;BME280;15455;53.376;-6.262;2024-02-21T14:00:28;99147.72;;;11.47;100.00
28167;BME280;15455;53.376;-6.262;2024-02-21T14:03:13;99125.50;;;11.61;100.00
28167;BME280;15455;53.376;-6.262;2024-02-21T14:05:59;99117.72;;;11.86;100.00
28167;BME280;15455;53.376;-6.262;2024-02-21T14:08:44;99128.66;;;12.23;100.00
28167;BME280;15455;53.376;-6.262;2024-02-21T14:11:30;99142.59;;;12.23;100.00
28167;BME280;15455;53.376;-6.262;2024-02-21T14:14:16;99128.34;;;12.07;100.00
28167;BME280;15455;53.376;-6.262;2024-02-21T14:17:02;99135.94;;;11.88;100.00
28167;BME280;15455;53.376;-6.262;2024-02-21T14:19:49;99148.16;;;11.60;100.00
28167;BME280;15455;53.376;-6.262;2024-02-21T14:22:35;99155.91;;;11.63;100.00
28167;BME280;15455;53.376;-6.262;2024-02-21T14:25:22;99147.03;;;11.41;100.00